createdAt,value
2019-03-23T00:07:40.352Z,16.5
2019-03-23T00:17:59.240Z,21.0
2019-03-23T00:28:13.834Z,14.2
2019-03-23T00:38:42.793Z,16.7
2019-03-23T00:49:00.070Z,15.7
2019-03-23T00:59:16.200Z,16.7
2019-03-23T01:09:35.382Z,20.1
2019-03-23T01:20:22.900Z,22.2
2019-03-23T01:30:36.688Z,17.7
2019-03-23T01:40:50.114Z,21.7
2019-03-23T01:51:42.217Z,24.6
2019-03-23T02:02:07.140Z,20.0
2019-03-23T02:13:07.354Z,26.1
2019-03-23T02:23:34.472Z,19.9
2019-03-23T02:34:29.552Z,22.7
2019-03-23T02:45:14.774Z,23.3
2019-03-23T02:55:36.851Z,16.7
2019-03-23T03:06:32.707Z,24.7
2019-03-23T03:16:47.357Z,18.2
2019-03-23T03:27:37.484Z,22.5
2019-03-23T03:38:29.097Z,24.9
2019-03-23T03:48:41.404Z,15.3
2019-03-23T04:01:05.653Z,27.3
2019-03-23T04:12:10.260Z,16.6
2019-03-23T04:23:44.104Z,24.9
2019-03-23T04:34:59.763Z,25.6
2019-03-23T04:45:39.685Z,15.7
2019-03-23T04:56:51.715Z,22.8
2019-03-23T05:08:32.934Z,23.9
2019-03-23T05:20:13.445Z,17.7
2019-03-23T05:33:51.914Z,22.1
2019-03-23T05:44:40.700Z,19.4
2019-03-23T05:56:09.218Z,18.0
2019-03-23T06:06:56.032Z,18.0
2019-03-23T06:18:01.744Z,24.5
2019-03-23T06:29:36.220Z,30.4
2019-03-23T06:40:01.295Z,17.1
2019-03-23T06:50:31.864Z,18.0
2019-03-23T07:01:24.206Z,26.9
2019-03-23T07:13:03.403Z,25.5
2019-03-23T07:24:10.097Z,22.2
2019-03-23T07:34:55.127Z,27.2
2019-03-23T07:45:06.916Z,13.9
2019-03-23T07:55:40.922Z,21.9
2019-03-23T08:06:58.265Z,24.3
2019-03-23T08:17:32.973Z,14.7
2019-03-23T08:28:32.369Z,22.6
2019-03-23T08:39:33.023Z,22.8
2019-03-23T08:50:20.171Z,24.7
2019-03-23T09:01:20.322Z,18.5
2019-03-23T09:12:37.115Z,23.4
2019-03-23T09:23:05.498Z,18.4
2019-03-23T09:33:51.137Z,24.8
2019-03-23T09:44:49.463Z,23.0
2019-03-23T09:58:31.515Z,21.9
2019-03-23T10:23:10.266Z,18.2
2019-03-23T10:45:46.967Z,25.1
2019-03-23T10:56:37.724Z,17.0
2019-03-23T11:09:39.607Z,21.2
2019-03-23T11:22:49.498Z,25.1
2019-03-23T11:48:24.658Z,18.9
2019-03-23T11:59:06.669Z,15.9
2019-03-23T12:10:02.455Z,21.7
2019-03-23T12:21:04.130Z,25.3
2019-03-23T12:31:28.975Z,16.1
2019-03-23T12:42:54.038Z,24.7
2019-03-23T12:53:55.059Z,15.4
2019-03-23T13:07:06.810Z,21.0
2019-03-23T13:20:15.836Z,18.2
2019-03-23T13:32:02.959Z,18.5
2019-03-23T13:44:41.578Z,18.7
2019-03-23T14:18:10.804Z,22.3
2019-03-23T14:30:34.298Z,16.4
2019-03-23T14:50:21.597Z,23.8
2019-03-23T15:01:42.533Z,21.2
2019-03-23T15:13:00.049Z,6.1
2019-03-23T15:24:42.389Z,9.3
2019-03-23T15:35:18.966Z,9.4
2019-03-23T15:46:16.433Z,8.9
2019-03-23T15:57:10.152Z,8.0
2019-03-23T16:07:29.056Z,8.2
2019-03-23T16:18:30.397Z,5.2
2019-03-23T16:29:50.543Z,4.3
2019-03-23T16:54:11.021Z,4.0
2019-03-23T17:05:08.183Z,3.9
2019-03-23T17:18:48.507Z,2.9
2019-03-23T17:29:26.129Z,4.0
2019-03-23T17:41:01.967Z,6.9
2019-03-23T17:52:16.666Z,2.4
2019-03-23T18:02:58.782Z,2.8
2019-03-23T18:13:46.232Z,4.7
2019-03-23T18:25:19.898Z,4.5
2019-03-23T18:36:05.722Z,5.1
2019-03-23T19:20:01.030Z,4.6
2019-03-23T20:07:04.503Z,4.8
2019-03-23T20:35:15.747Z,2.9
2019-03-23T20:46:09.520Z,6.7
2019-03-23T21:15:32.295Z,9.2
2019-03-23T21:27:27.570Z,4.7
2019-03-23T21:39:40.354Z,6.0
2019-03-23T21:52:17.161Z,7.4
2019-03-23T22:03:43.099Z,2.3
2019-03-23T22:28:15.402Z,3.7
2019-03-23T22:40:36.456Z,3.9
2019-03-23T22:51:55.856Z,2.2
2019-03-23T23:02:13.788Z,2.2
2019-03-23T23:12:30.417Z,1.4
2019-03-23T23:22:50.666Z,2.1
2019-03-23T23:33:38.199Z,2.2
2019-03-23T23:43:56.058Z,3.0
2019-03-23T23:54:18.551Z,2.3
